createdAt,value
2022-08-25T00:00:12.637Z,1.80
2022-08-25T00:02:41.577Z,2.05
2022-08-25T00:05:22.337Z,1.92
2022-08-25T00:07:49.292Z,1.95
2022-08-25T00:10:16.156Z,2.08
2022-08-25T00:12:43.127Z,2.38
2022-08-25T00:15:11.179Z,2.08
2022-08-25T00:17:38.172Z,2.08
2022-08-25T00:20:09.554Z,2.08
2022-08-25T00:22:36.561Z,2.33
2022-08-25T00:25:04.288Z,2.28
2022-08-25T00:27:31.227Z,1.98
2022-08-25T00:29:58.526Z,2.22
2022-08-25T00:32:25.599Z,2.33
2022-08-25T00:34:53.363Z,2.70
2022-08-25T00:37:21.746Z,2.42
2022-08-25T00:39:49.077Z,2.30
2022-08-25T00:42:16.501Z,2.22
2022-08-25T00:44:43.965Z,2.28
2022-08-25T00:47:11.493Z,2.50
2022-08-25T00:49:43.249Z,2.30
2022-08-25T00:52:13.972Z,2.30
2022-08-25T00:54:51.007Z,2.72
2022-08-25T00:57:34.136Z,2.40
2022-08-25T01:00:07.027Z,2.38
2022-08-25T01:02:34.070Z,2.20
2022-08-25T01:05:01.004Z,2.67
2022-08-25T01:07:28.228Z,2.55
2022-08-25T01:09:56.738Z,2.40
2022-08-25T01:12:23.662Z,2.72
2022-08-25T01:14:51.500Z,2.35
2022-08-25T01:17:18.629Z,2.60
2022-08-25T01:19:45.602Z,2.97
2022-08-25T01:22:13.944Z,2.80
2022-08-25T01:24:45.667Z,3.10
2022-08-25T01:27:12.722Z,2.90
2022-08-25T01:29:40.147Z,3.05
2022-08-25T01:32:10.873Z,3.28
2022-08-25T01:34:41.231Z,3.70
2022-08-25T01:37:09.465Z,3.40
2022-08-25T01:39:42.856Z,3.38
2022-08-25T01:42:28.326Z,3.25
2022-08-25T01:44:55.858Z,3.17
2022-08-25T01:47:24.092Z,3.30
2022-08-25T01:49:51.231Z,3.83
2022-08-25T01:52:21.649Z,3.63
2022-08-25T01:54:50.110Z,3.08
2022-08-25T01:57:17.112Z,3.30
2022-08-25T01:59:45.023Z,3.20
2022-08-25T02:02:12.500Z,3.33
2022-08-25T02:04:40.703Z,3.55
2022-08-25T02:07:11.215Z,2.92
2022-08-25T02:09:39.066Z,3.00
2022-08-25T02:12:09.578Z,3.05
2022-08-25T02:14:36.853Z,3.13
2022-08-25T02:17:05.530Z,3.47
2022-08-25T02:19:32.673Z,3.53
2022-08-25T02:22:00.208Z,3.83
2022-08-25T02:24:27.288Z,3.75
2022-08-25T02:26:54.229Z,3.78
2022-08-25T02:29:22.854Z,3.33
2022-08-25T02:31:49.853Z,3.88
2022-08-25T02:34:17.035Z,4.25
2022-08-25T02:36:44.323Z,3.70
2022-08-25T02:39:12.407Z,3.80
2022-08-25T02:41:39.862Z,3.88
2022-08-25T02:44:07.681Z,3.83
2022-08-25T02:46:36.766Z,3.55
2022-08-25T02:49:04.300Z,3.35
2022-08-25T02:51:32.136Z,3.60
2022-08-25T02:54:01.374Z,4.00
2022-08-25T02:56:28.707Z,4.13
2022-08-25T02:58:55.852Z,4.05
2022-08-25T03:01:28.476Z,4.60
2022-08-25T03:03:57.733Z,4.47
2022-08-25T03:06:25.333Z,4.30
2022-08-25T03:08:53.259Z,3.97
2022-08-25T03:11:21.363Z,3.95
2022-08-25T03:13:51.205Z,4.18
2022-08-25T03:16:19.155Z,4.40
2022-08-25T03:18:46.217Z,4.20
2022-08-25T03:21:15.942Z,4.63
2022-08-25T03:23:43.952Z,4.35
2022-08-25T03:26:39.820Z,4.32
2022-08-25T03:29:06.770Z,4.10
2022-08-25T03:31:35.302Z,4.18
2022-08-25T03:34:02.447Z,4.20
2022-08-25T03:36:30.950Z,4.90
2022-08-25T03:38:57.943Z,4.20
2022-08-25T03:41:29.776Z,4.13
2022-08-25T03:43:57.350Z,4.45
2022-08-25T03:46:26.261Z,4.63
2022-08-25T03:48:53.893Z,4.93
2022-08-25T03:51:22.462Z,4.22
2022-08-25T03:53:51.030Z,4.55
2022-08-25T03:56:18.322Z,4.38
2022-08-25T03:58:45.923Z,4.40
2022-08-25T04:01:12.924Z,4.60
2022-08-25T04:03:39.909Z,4.90
2022-08-25T04:06:08.826Z,4.80
2022-08-25T04:08:35.954Z,4.82
2022-08-25T04:11:08.448Z,4.70
2022-08-25T04:13:36.532Z,5.18
2022-08-25T04:16:04.486Z,4.75
2022-08-25T04:18:31.407Z,5.07
2022-08-25T04:21:06.547Z,5.60
2022-08-25T04:23:33.473Z,4.97
2022-08-25T04:26:00.514Z,5.50
2022-08-25T04:28:29.439Z,5.28
2022-08-25T04:30:56.353Z,5.80
2022-08-25T04:33:23.655Z,5.40
2022-08-25T04:35:50.934Z,5.28
2022-08-25T04:38:17.959Z,5.25
2022-08-25T04:40:44.911Z,5.32
2022-08-25T04:43:11.795Z,5.57
2022-08-25T04:45:40.963Z,6.10
2022-08-25T04:48:08.413Z,5.97
2022-08-25T04:50:38.769Z,5.10
2022-08-25T04:53:05.756Z,5.70
2022-08-25T04:55:32.671Z,5.75
2022-08-25T04:57:59.713Z,5.90
2022-08-25T05:00:26.677Z,6.13
2022-08-25T05:02:55.617Z,5.22
2022-08-25T05:05:22.523Z,5.32
2022-08-25T05:07:49.548Z,6.13
2022-08-25T05:10:16.584Z,6.22
2022-08-25T05:12:43.831Z,5.90
2022-08-25T05:15:30.262Z,5.93
2022-08-25T05:17:58.686Z,5.63
2022-08-25T05:20:25.754Z,5.72
2022-08-25T05:22:53.061Z,5.93
2022-08-25T05:25:20.007Z,5.60
2022-08-25T05:27:46.941Z,5.78
2022-08-25T05:30:14.178Z,5.45
2022-08-25T05:32:41.168Z,5.97
2022-08-25T05:35:10.015Z,6.05
2022-08-25T05:37:38.069Z,6.25
2022-08-25T05:40:05.876Z,5.47
2022-08-25T05:42:33.000Z,5.97
2022-08-25T05:44:59.981Z,6.35
2022-08-25T05:47:27.210Z,6.50
2022-08-25T05:49:54.078Z,5.90
2022-08-25T05:52:22.555Z,6.28
2022-08-25T05:54:49.590Z,6.00
2022-08-25T05:57:16.588Z,6.30
2022-08-25T05:59:43.520Z,6.30
2022-08-25T06:02:28.991Z,6.50
2022-08-25T06:04:55.937Z,5.55
2022-08-25T06:07:24.408Z,5.00
2022-08-25T06:09:54.234Z,5.00
2022-08-25T06:12:21.876Z,5.10
2022-08-25T06:14:51.758Z,5.50
2022-08-25T06:17:18.798Z,5.05
2022-08-25T06:19:45.791Z,5.35
2022-08-25T06:22:12.891Z,5.28
2022-08-25T06:24:41.258Z,4.72
2022-08-25T06:27:08.348Z,4.47
2022-08-25T06:29:36.209Z,4.50
2022-08-25T06:32:05.502Z,4.97
2022-08-25T06:34:32.995Z,4.70
2022-08-25T06:37:00.040Z,5.38
2022-08-25T06:39:27.262Z,5.80
2022-08-25T06:41:56.865Z,4.70
2022-08-25T06:44:24.568Z,5.22
2022-08-25T06:46:52.261Z,5.15
2022-08-25T06:49:19.400Z,5.65
2022-08-25T06:51:46.699Z,5.38
2022-08-25T06:54:13.768Z,5.88
2022-08-25T06:56:41.508Z,5.50
2022-08-25T06:59:10.815Z,5.85
2022-08-25T07:01:38.167Z,6.28
2022-08-25T07:04:10.371Z,6.13
2022-08-25T07:06:41.790Z,5.65
2022-08-25T07:09:09.912Z,6.18
2022-08-25T07:11:37.235Z,6.25
2022-08-25T07:14:07.011Z,6.00
2022-08-25T07:16:36.625Z,6.25
2022-08-25T07:19:05.425Z,6.10
2022-08-25T07:21:36.745Z,6.32
2022-08-25T07:24:06.917Z,6.10
2022-08-25T07:26:38.104Z,6.35
2022-08-25T07:29:08.253Z,6.32
2022-08-25T07:31:36.692Z,6.30
2022-08-25T07:34:23.238Z,6.22
2022-08-25T07:36:50.281Z,6.50
2022-08-25T07:39:17.941Z,5.80
2022-08-25T07:41:52.215Z,6.50
2022-08-25T07:44:20.765Z,6.75
2022-08-25T07:46:50.182Z,6.30
2022-08-25T07:49:17.679Z,5.43
2022-08-25T07:52:03.735Z,5.82
2022-08-25T07:54:33.927Z,5.53
2022-08-25T07:57:01.806Z,6.65
2022-08-25T07:59:29.330Z,5.80
2022-08-25T08:01:58.080Z,6.50
2022-08-25T08:04:25.186Z,6.30
2022-08-25T08:06:52.091Z,5.93
2022-08-25T08:09:19.170Z,5.90
2022-08-25T08:11:54.010Z,6.40
2022-08-25T08:14:21.759Z,6.40
2022-08-25T08:16:49.987Z,5.53
2022-08-25T08:19:18.458Z,5.90
2022-08-25T08:21:51.378Z,6.57
2022-08-25T08:24:40.790Z,6.32
2022-08-25T08:27:08.720Z,5.93
2022-08-25T08:29:36.463Z,6.20
2022-08-25T08:32:04.559Z,6.63
2022-08-25T08:34:35.268Z,6.35
2022-08-25T08:37:03.242Z,6.07
2022-08-25T08:39:30.867Z,5.80
2022-08-25T08:42:19.776Z,5.93
2022-08-25T08:45:17.467Z,6.00
2022-08-25T08:47:56.342Z,6.45
2022-08-25T08:50:33.149Z,6.38
2022-08-25T08:53:08.915Z,6.00
2022-08-25T08:55:40.397Z,5.95
2022-08-25T08:58:13.222Z,5.40
2022-08-25T09:00:52.405Z,5.63
2022-08-25T09:03:30.291Z,5.35
2022-08-25T09:06:03.785Z,5.65
2022-08-25T09:08:34.725Z,5.30
2022-08-25T09:11:10.110Z,6.03
2022-08-25T09:14:02.305Z,5.18
2022-08-25T09:16:57.219Z,5.10
2022-08-25T09:19:57.334Z,5.32
2022-08-25T09:22:37.429Z,4.88
2022-08-25T09:25:11.293Z,4.68
2022-08-25T09:27:45.340Z,4.60
2022-08-25T09:30:14.614Z,4.53
2022-08-25T09:32:48.767Z,4.57
2022-08-25T09:35:22.969Z,3.97
2022-08-25T09:37:59.304Z,4.22
2022-08-25T09:40:28.318Z,4.43
2022-08-25T09:42:57.803Z,3.90
2022-08-25T09:45:49.110Z,4.75
2022-08-25T09:48:25.398Z,4.63
2022-08-25T09:50:57.752Z,4.57
2022-08-25T09:53:28.238Z,4.30
2022-08-25T09:56:07.727Z,4.85
2022-08-25T09:58:35.242Z,4.55
2022-08-25T10:01:11.597Z,5.28
2022-08-25T10:03:53.074Z,5.22
2022-08-25T10:06:22.094Z,5.40
2022-08-25T10:08:57.643Z,5.47
2022-08-25T10:11:43.676Z,5.72
2022-08-25T10:14:27.661Z,5.40
2022-08-25T10:17:15.220Z,5.35
2022-08-25T10:19:42.860Z,4.82
2022-08-25T10:22:12.813Z,5.50
2022-08-25T10:24:43.896Z,4.90
2022-08-25T10:27:23.322Z,4.93
2022-08-25T10:30:17.217Z,4.68
2022-08-25T10:33:07.103Z,5.18
2022-08-25T10:35:47.637Z,4.72
2022-08-25T10:38:35.453Z,5.40
2022-08-25T10:41:16.802Z,5.13
2022-08-25T10:43:49.720Z,5.28
2022-08-25T10:46:25.860Z,5.07
2022-08-25T10:49:02.840Z,4.80
2022-08-25T10:51:50.957Z,4.28
2022-08-25T10:54:29.405Z,5.05
2022-08-25T10:57:08.256Z,4.80
2022-08-25T10:59:52.109Z,5.65
2022-08-25T11:02:55.141Z,5.68
2022-08-25T11:05:27.723Z,4.95
2022-08-25T11:08:05.592Z,5.38
2022-08-25T11:10:40.855Z,5.10
2022-08-25T11:13:17.965Z,4.72
2022-08-25T11:16:15.494Z,5.40
2022-08-25T11:18:47.022Z,5.13
2022-08-25T11:21:22.176Z,4.95
2022-08-25T11:23:56.037Z,4.85
2022-08-25T11:26:36.587Z,4.90
2022-08-25T11:29:12.579Z,4.95
2022-08-25T11:31:43.239Z,4.65
2022-08-25T11:34:14.550Z,4.80
2022-08-25T11:36:49.430Z,4.93
2022-08-25T11:39:26.595Z,4.80
2022-08-25T11:42:08.556Z,5.18
2022-08-25T11:44:53.708Z,4.65
2022-08-25T11:48:08.162Z,5.18
2022-08-25T11:53:25.137Z,5.00
2022-08-25T11:55:56.692Z,4.78
2022-08-25T11:58:41.669Z,4.80
2022-08-25T12:01:36.347Z,5.05
2022-08-25T12:04:17.139Z,5.25
2022-08-25T12:07:21.943Z,4.90
2022-08-25T12:10:13.142Z,5.03
2022-08-25T12:13:23.621Z,5.22
2022-08-25T12:16:02.879Z,4.72
2022-08-25T12:18:45.887Z,5.07
2022-08-25T12:21:28.745Z,4.93
2022-08-25T12:24:11.374Z,4.57
2022-08-25T12:26:46.676Z,4.43
2022-08-25T12:29:17.090Z,4.70
2022-08-25T12:32:09.939Z,4.50
2022-08-25T12:35:09.201Z,3.97
2022-08-25T12:37:55.910Z,4.47
2022-08-25T12:40:27.748Z,3.58
2022-08-25T12:43:04.217Z,4.07
2022-08-25T12:45:39.847Z,4.40
2022-08-25T12:48:56.027Z,3.90
2022-08-25T12:51:26.678Z,3.83
2022-08-25T12:53:59.923Z,3.78
2022-08-25T12:56:32.584Z,3.58
2022-08-25T12:59:14.557Z,3.20
2022-08-25T13:02:03.139Z,3.35
2022-08-25T13:05:04.600Z,3.20
2022-08-25T13:07:50.038Z,3.72
2022-08-25T13:10:34.750Z,3.58
2022-08-25T13:13:07.180Z,3.65
2022-08-25T13:15:38.634Z,3.83
2022-08-25T13:18:30.717Z,3.83
2022-08-25T13:21:05.929Z,3.60
2022-08-25T13:23:36.537Z,3.65
2022-08-25T13:26:04.869Z,3.53
2022-08-25T13:28:36.368Z,4.10
2022-08-25T13:31:08.388Z,4.00
2022-08-25T13:33:36.446Z,4.60
2022-08-25T13:36:23.533Z,3.90
2022-08-25T13:38:52.466Z,4.07
2022-08-25T13:41:29.460Z,3.53
2022-08-25T13:44:00.791Z,3.85
2022-08-25T13:46:28.398Z,4.38
2022-08-25T13:49:05.120Z,3.97
2022-08-25T13:51:32.460Z,3.50
2022-08-25T13:54:04.354Z,3.67
2022-08-25T13:56:38.802Z,3.42
2022-08-25T13:59:22.018Z,3.92
2022-08-25T14:01:53.531Z,3.78
2022-08-25T14:04:25.017Z,4.00
2022-08-25T14:07:08.343Z,3.67
2022-08-25T14:09:45.837Z,4.00
2022-08-25T14:15:02.765Z,3.60
2022-08-25T14:17:39.144Z,3.97
2022-08-25T14:20:17.418Z,3.63
2022-08-25T14:22:44.573Z,4.05
2022-08-25T14:25:13.832Z,3.70
2022-08-25T14:28:05.349Z,3.67
2022-08-25T14:30:34.839Z,3.83
2022-08-25T14:33:04.149Z,3.63
2022-08-25T14:35:31.958Z,3.53
2022-08-25T14:37:59.001Z,3.70
2022-08-25T14:40:33.583Z,3.72
2022-08-25T14:43:02.168Z,4.03
2022-08-25T14:45:31.489Z,3.80
2022-08-25T14:48:10.338Z,4.22
2022-08-25T14:50:41.234Z,4.15
2022-08-25T14:53:10.120Z,4.13
2022-08-25T14:55:39.805Z,3.78
2022-08-25T14:58:07.021Z,3.60
2022-08-25T15:00:35.534Z,3.97
2022-08-25T15:03:03.116Z,3.55
2022-08-25T15:05:31.323Z,3.60
2022-08-25T15:08:16.879Z,3.75
2022-08-25T15:10:46.707Z,3.72
2022-08-25T15:13:14.870Z,3.47
2022-08-25T15:15:52.550Z,3.38
2022-08-25T15:18:21.125Z,3.08
2022-08-25T15:20:49.992Z,3.20
2022-08-25T15:23:17.846Z,3.50
2022-08-25T15:25:49.204Z,3.63
2022-08-25T15:28:22.201Z,3.38
2022-08-25T15:30:49.820Z,3.15
2022-08-25T15:33:18.400Z,3.58
2022-08-25T15:35:46.611Z,3.63
2022-08-25T15:38:17.201Z,3.17
2022-08-25T15:40:44.306Z,3.80
2022-08-25T15:43:15.040Z,3.42
2022-08-25T15:45:46.476Z,3.45
2022-08-25T15:48:13.816Z,3.53
2022-08-25T15:50:42.526Z,3.58
2022-08-25T15:53:10.491Z,3.20
2022-08-25T15:55:39.748Z,3.40
2022-08-25T15:58:07.134Z,3.47
2022-08-25T16:00:37.990Z,3.33
2022-08-25T16:03:08.112Z,3.70
2022-08-25T16:05:35.922Z,3.60
2022-08-25T16:08:05.291Z,3.60
2022-08-25T16:10:34.139Z,3.60
2022-08-25T16:13:04.858Z,3.58
2022-08-25T16:15:33.575Z,3.67
2022-08-25T16:18:04.896Z,3.60
2022-08-25T16:20:34.267Z,3.65
2022-08-25T16:23:04.096Z,3.80
2022-08-25T16:25:31.621Z,4.13
2022-08-25T16:27:58.830Z,3.70
2022-08-25T16:30:26.402Z,3.80
2022-08-25T16:32:54.040Z,3.92
2022-08-25T16:35:22.898Z,4.40
2022-08-25T16:37:51.116Z,3.72
2022-08-25T16:40:20.150Z,3.42
2022-08-25T16:42:48.712Z,3.83
2022-08-25T16:45:15.920Z,3.75
2022-08-25T16:47:46.183Z,3.75
2022-08-25T16:50:14.306Z,4.10
2022-08-25T16:53:01.822Z,4.07
2022-08-25T16:55:39.024Z,4.47
2022-08-25T16:58:08.510Z,8.88
2022-08-25T17:00:40.642Z,4.90
2022-08-25T17:03:07.932Z,5.05
2022-08-25T17:05:42.318Z,5.18
2022-08-25T17:08:30.707Z,4.00
2022-08-25T17:11:11.863Z,4.10
2022-08-25T17:13:44.415Z,4.03
2022-08-25T17:16:12.544Z,3.90
2022-08-25T17:18:42.196Z,3.88
2022-08-25T17:21:12.743Z,4.13
2022-08-25T17:23:48.719Z,3.90
2022-08-25T17:26:18.591Z,4.10
2022-08-25T17:28:46.304Z,4.22
2022-08-25T17:31:15.924Z,3.97
2022-08-25T17:33:44.353Z,3.80
2022-08-25T17:36:17.025Z,3.90
2022-08-25T17:38:45.110Z,4.20
2022-08-25T17:41:15.137Z,3.85
2022-08-25T17:43:46.236Z,4.15
2022-08-25T17:46:14.839Z,3.47
2022-08-25T17:48:43.805Z,4.00
2022-08-25T17:51:11.316Z,3.67
2022-08-25T17:53:38.840Z,3.47
2022-08-25T17:56:08.112Z,3.47
2022-08-25T17:58:37.221Z,2.90
2022-08-25T18:01:06.263Z,3.10
2022-08-25T18:03:34.675Z,3.20
2022-08-25T18:06:05.723Z,2.92
2022-08-25T18:08:35.031Z,2.90
2022-08-25T18:11:04.962Z,3.00
2022-08-25T18:13:32.014Z,3.33
2022-08-25T18:16:01.039Z,3.28
2022-08-25T18:18:29.920Z,3.80
2022-08-25T18:20:57.292Z,3.30
2022-08-25T18:23:24.391Z,3.63
2022-08-25T18:25:51.598Z,3.30
2022-08-25T18:28:28.943Z,3.72
2022-08-25T18:30:56.353Z,3.60
2022-08-25T18:33:25.742Z,3.45
2022-08-25T18:35:57.652Z,3.65
2022-08-25T18:38:43.639Z,4.10
2022-08-25T18:41:11.913Z,4.22
2022-08-25T18:43:39.610Z,4.28
2022-08-25T18:46:08.293Z,4.10
2022-08-25T18:48:38.900Z,4.72
2022-08-25T18:51:10.524Z,4.35
2022-08-25T18:53:50.509Z,4.40
2022-08-25T18:56:19.029Z,4.65
2022-08-25T18:58:49.007Z,4.07
2022-08-25T19:01:19.325Z,4.47
2022-08-25T19:03:48.624Z,4.40
2022-08-25T19:06:17.121Z,4.47
2022-08-25T19:08:45.291Z,4.30
2022-08-25T19:11:12.934Z,4.32
2022-08-25T19:13:40.578Z,4.90
2022-08-25T19:16:13.916Z,4.30
2022-08-25T19:18:45.761Z,4.28
2022-08-25T19:21:14.873Z,4.13
2022-08-25T19:23:42.080Z,4.05
2022-08-25T19:26:16.921Z,4.20
2022-08-25T19:28:48.653Z,4.05
2022-08-25T19:31:18.359Z,3.90
2022-08-25T19:33:46.003Z,3.80
2022-08-25T19:36:15.480Z,4.00
2022-08-25T19:38:44.382Z,3.75
2022-08-25T19:41:14.618Z,3.45
2022-08-25T19:43:55.631Z,4.00
2022-08-25T19:46:25.671Z,3.90
2022-08-25T19:49:07.140Z,3.90
2022-08-25T19:51:38.875Z,3.42
2022-08-25T19:54:06.822Z,4.00
2022-08-25T19:56:36.519Z,4.00
2022-08-25T19:59:04.492Z,3.80
2022-08-25T20:01:32.285Z,4.30
2022-08-25T20:04:03.592Z,4.43
2022-08-25T20:06:33.883Z,4.20
2022-08-25T20:09:03.941Z,3.90
2022-08-25T20:11:34.083Z,3.83
2022-08-25T20:14:03.853Z,4.35
2022-08-25T20:16:34.193Z,4.13
2022-08-25T20:19:03.586Z,4.05
2022-08-25T20:21:31.903Z,4.43
2022-08-25T20:24:18.470Z,4.13
2022-08-25T20:26:49.651Z,3.53
2022-08-25T20:29:16.974Z,3.90
2022-08-25T20:31:44.635Z,3.75
2022-08-25T20:34:13.622Z,3.90
2022-08-25T20:36:50.138Z,3.53
2022-08-25T20:39:18.347Z,3.80
2022-08-25T20:41:48.471Z,4.22
2022-08-25T20:44:18.693Z,3.90
2022-08-25T20:46:51.521Z,4.00
2022-08-25T20:49:20.384Z,4.35
2022-08-25T20:51:47.880Z,4.15
2022-08-25T20:54:19.042Z,4.00
2022-08-25T20:56:46.114Z,4.05
2022-08-25T20:59:14.099Z,3.85
2022-08-25T21:01:43.834Z,4.50
2022-08-25T21:04:14.634Z,4.35
2022-08-25T21:06:43.299Z,4.05
2022-08-25T21:09:16.132Z,4.80
2022-08-25T21:11:44.099Z,4.50
2022-08-25T21:14:13.285Z,4.20
2022-08-25T21:16:41.622Z,3.90
2022-08-25T21:19:12.519Z,4.70
2022-08-25T21:21:40.121Z,4.68
2022-08-25T21:24:10.042Z,4.35
2022-08-25T21:26:48.960Z,4.70
2022-08-25T21:29:18.259Z,4.30
2022-08-25T21:31:45.498Z,4.13
2022-08-25T21:34:15.677Z,4.18
2022-08-25T21:36:43.694Z,4.20
2022-08-25T21:39:11.938Z,4.25
2022-08-25T21:41:42.853Z,4.63
2022-08-25T21:44:11.472Z,3.95
2022-08-25T21:46:39.925Z,4.32
2022-08-25T21:49:08.474Z,3.97
2022-08-25T21:51:40.543Z,4.32
2022-08-25T21:54:10.490Z,4.13
2022-08-25T21:56:39.638Z,4.15
2022-08-25T21:59:08.594Z,4.20
2022-08-25T22:01:36.822Z,4.13
2022-08-25T22:04:20.480Z,4.13
2022-08-25T22:06:48.970Z,4.25
2022-08-25T22:09:18.228Z,4.22
2022-08-25T22:11:47.200Z,4.55
2022-08-25T22:14:16.047Z,4.70
2022-08-25T22:16:43.954Z,5.03
2022-08-25T22:19:13.073Z,4.97
2022-08-25T22:21:42.059Z,4.68
2022-08-25T22:24:11.151Z,4.75
2022-08-25T22:26:38.421Z,5.28
2022-08-25T22:29:06.240Z,5.03
2022-08-25T22:31:34.445Z,4.68
2022-08-25T22:34:02.724Z,5.28
2022-08-25T22:36:32.162Z,5.15
2022-08-25T22:38:59.524Z,4.50
2022-08-25T22:41:29.942Z,4.75
2022-08-25T22:43:57.733Z,5.18
2022-08-25T22:46:27.892Z,4.93
2022-08-25T22:48:55.646Z,4.45
2022-08-25T22:51:25.291Z,5.18
2022-08-25T22:53:53.926Z,5.18
2022-08-25T22:56:30.917Z,5.07
2022-08-25T22:58:59.892Z,5.10
2022-08-25T23:02:16.443Z,5.20
2022-08-25T23:04:43.624Z,5.05
2022-08-25T23:07:11.521Z,5.28
2022-08-25T23:09:38.762Z,4.85
2022-08-25T23:12:08.101Z,4.30
2022-08-25T23:14:36.801Z,4.72
2022-08-25T23:17:07.488Z,4.63
2022-08-25T23:19:35.383Z,5.07
2022-08-25T23:22:16.162Z,5.05
2022-08-25T23:24:45.468Z,4.45
2022-08-25T23:27:15.864Z,4.22
2022-08-25T23:29:47.247Z,4.45
2022-08-25T23:32:15.130Z,4.60
2022-08-25T23:34:46.564Z,4.63
2022-08-25T23:37:15.579Z,4.30
2022-08-25T23:39:45.625Z,4.68
2022-08-25T23:42:14.119Z,4.38
2022-08-25T23:44:41.152Z,4.30
2022-08-25T23:47:08.043Z,4.50
2022-08-25T23:49:39.349Z,4.25
2022-08-25T23:52:06.652Z,4.70
2022-08-25T23:54:33.540Z,4.35
2022-08-25T23:57:00.491Z,4.57
2022-08-25T23:59:30.044Z,4.40
